Connexion

16Km

16 Km Plateau Picard du 18/02/18 (Reelle 15)
Rang Dossard Nom Prénom Temps Cat Rang Cat Ecart Ecart Cat Club Vitesse Km/h Temps au Km
1 228 NORDEST Sébastien 00:59:39 SEM 1 00:00:00 00:00:00 Team Foulees 60 15,088 03:59
2 157 DEWANCKELE Eric 01:00:32 SEM 2 00:00:53 00:00:53 ACA BEAUVAIS 14,868 04:02
3 232 FEJEAN Stephane 01:03:05 V1M 1 00:03:26 00:00:00 14,267 04:12
4 202 BÉLOTTI Pascal 01:05:16 V1M 2 00:05:37 00:02:11 13,790 04:21
5 256 BIVILLE Vincent 01:05:57 SEM 3 00:06:18 00:06:18 Amicale Val de Somme 13,647 04:24
6 237 TALLON Romain 01:05:59 SEM 4 00:06:20 00:06:20 13,640 04:24
7 127 FARAT Emilien 01:06:18 SEM 5 00:06:39 00:06:39 US Camon 13,575 04:25
8 225 MARQUES Domingos 01:06:45 V1M 3 00:07:06 00:03:40 ASC Drancy 13,483 04:27
9 114 STIEVENART alexandre 01:07:33 SEM 6 00:07:54 00:07:54 13,323 04:30
10 130 HEDJAZI karim 01:09:30 V1M 4 00:09:51 00:06:25 EACPA 12,950 04:38
11 176 VATTIER Gregory 01:09:36 SEM 7 00:09:57 00:09:57 12,931 04:38
12 135 COULON VICTORIEN 01:09:42 SEM 8 00:10:03 00:10:03 12,912 04:39
13 177 HASBROUCK Olivier 01:10:00 SEM 9 00:10:21 00:10:21 12,857 04:40
14 198 BONIFACE Yohann 01:10:19 V1M 5 00:10:40 00:07:14 As Blacourt 12,799 04:41
15 244 GILBERT Giabin 01:11:00 SEM 10 00:11:21 00:11:21 12,676 04:44
16 254 FIGUERREDO Luis 01:11:11 V2M 1 00:11:32 00:00:00 ACP BRETEUIL 12,643 04:45
17 227 PEDROSA Kevin 01:11:19 JUM 1 00:11:40 00:00:00 ASC Drancy 12,620 04:45
18 216 COMMELIN Julien 01:13:13 SEM 11 00:13:34 00:13:34 ACP BRETEUIL 12,292 04:53
19 163 LEBRUN Jérémy 01:13:28 SEM 12 00:13:49 00:13:49 Saint Just Athlétisme 12,250 04:54
20 203 HATTÉ thierry 01:14:21 V2M 2 00:14:42 00:03:10 beauvais triathlon 12,105 04:57
21 226 MELKA Gérard 01:14:28 V2M 3 00:14:49 00:03:17 ASC Drancy 12,086 04:58
22 245 DAY DE Damien 01:14:51 SEM 13 00:15:12 00:15:12 Beauvais Triathlon 12,024 04:59
23 151 DHUVETTERE Jeremy 01:15:24 V1M 6 00:15:45 00:12:19 11,936 05:02
24 169 GELON Alexandre 01:15:39 SEM 14 00:16:00 00:16:00 11,897 05:03
25 236 JULLIEN Frederic 01:15:44 SEM 15 00:16:05 00:16:05 11,884 05:03
26 189 TOPART Christophe 01:15:50 V1M 7 00:16:11 00:12:45 11,868 05:03
27 158 BAH ADAMA 01:16:37 SEM 16 00:16:58 00:16:58 11,747 05:06
28 172 ROSANT Yann 01:16:57 V1M 8 00:17:18 00:13:52 11,696 05:08
29 229 DELORGE Pascal 01:17:20 V3M 1 00:17:41 00:00:00 Esprit run 11,638 05:09
30 166 MATHIS Ludo 01:17:30 V1M 9 00:17:51 00:14:25 Team Ecouvillon Aventure 11,613 05:10
31 101 QUILLET Johan 01:17:31 V1M 10 00:17:52 00:14:26 11,610 05:10
32 146 TAVERNE Yann 01:17:31 SEM 17 00:17:52 00:17:52 11,610 05:10
33 109 COHIN Régis 01:17:38 V2M 4 00:17:59 00:06:27 aca beauvais 11,593 05:11
34 136 BENEVENT Patrick 01:17:51 V2M 5 00:18:12 00:06:40 CC THELLE 11,561 05:11
35 219 CHATELAINT Michel 01:18:04 V3M 2 00:18:25 00:00:44 ASC Drancy 11,529 05:12
36 233 LALLART Frederic 01:18:51 V2M 6 00:19:12 00:07:40 11,414 05:15
37 190 BERTON josé 01:20:11 V1M 11 00:20:32 00:17:06 acp breteuil 11,224 05:21
38 147 DELATTRE Matthieu 01:20:15 V1M 12 00:20:36 00:17:10 11,215 05:21
39 165 MOREAU Benjamin 01:20:15 V1M 13 00:20:36 00:17:10 11,215 05:21
40 167 RENAUX Christophe 01:20:25 V2M 7 00:20:46 00:09:14 11,192 05:22
41 179 MARIÉ emmanuel 01:20:59 V2M 8 00:21:20 00:09:48 11,113 05:24
42 199 DUTITRE david 01:20:59 V1M 14 00:21:20 00:17:54 11,113 05:24
43 145 PELTIER Yannick 01:21:02 SEM 18 00:21:23 00:21:23 11,107 05:24
44 255 CARBONNET Fabrice 01:21:42 V2M 9 00:22:03 00:10:31 ACP BRETEUIL 11,016 05:27
45 156 CHUETTE michel 01:21:48 V2M 10 00:22:09 00:10:37 aca 11,002 05:27
46 159 DEMIREL ugur 01:21:49 V1M 15 00:22:10 00:18:44 11,000 05:27
47 162 HÉNON Rémi 01:21:58 SEM 19 00:22:19 00:22:19 10,980 05:28
48 230 MINARD Gilles 01:22:08 V2M 11 00:22:29 00:10:57 VERBERIE 10,958 05:29
49 137 DEROO Morgan 01:22:25 SEM 20 00:22:46 00:22:46 Epernay triathlon 10,920 05:30
50 214 GLOWACKI Yoahn 01:22:42 SEM 21 00:23:03 00:23:03 10,883 05:31
51 206 LANGLOIS Daniel 01:22:56 V3M 3 00:23:17 00:05:36 As Blacourt 10,852 05:32
52 155 GALMANT vincent 01:22:56 V1M 16 00:23:17 00:19:51 aca 10,852 05:32
53 100 FAUVERGUE BENJAMIN 01:23:12 SEM 22 00:23:33 00:23:33 AMIENS UC 10,817 05:33
54 118 CARPENTIER Jean 01:23:16 V3M 4 00:23:37 00:05:56 Noa 10,809 05:33
55 102 PADILLA Xavier 01:23:20 SEM 23 00:23:41 00:23:41 10,800 05:33
56 186 LEGRAND maxim 01:23:27 SEM 24 00:23:48 00:23:48 chantilly atlhetisme 10,785 05:34
57 205 DUPONT Lucine 01:23:33 SEF 1 00:23:54 00:00:00 10,772 05:34
58 213 DUMONT thibaut 01:23:49 SEM 25 00:24:10 00:24:10 10,738 05:35
59 128 COURTIN Damien 01:24:08 SEM 26 00:24:29 00:24:29 10,697 05:37
60 257 BIVILLE Myriam 01:24:38 SEF 2 00:24:59 00:01:05 Amicale Val de Somme 10,634 05:39
61 260 ROOSE Valentin 01:24:39 SEM 27 00:25:00 00:25:00 ACP BRETEUIL 10,632 05:39
62 105 CAUET Emmanuel 01:25:05 SEM 28 00:25:26 00:25:26 US CAMON 10,578 05:40
63 171 CARON sebastien 01:25:59 SEM 29 00:26:20 00:26:20 10,467 05:44
64 239 FLATTET Ludovic 01:26:08 V1M 17 00:26:29 00:23:03 10,449 05:45
65 240 SCHITTER Laurent 01:26:08 V1M 18 00:26:29 00:23:03 10,449 05:45
66 234 DUFOUR Dominique 01:26:36 V2M 12 00:26:57 00:15:25 10,393 05:46
67 215 CARRARA Tony 01:26:46 SEM 30 00:27:07 00:27:07 10,373 05:47
68 250 GAILLARD Joffrey 01:27:21 V2M 13 00:27:42 00:16:10 10,303 05:49
69 111 FOULOY sebastien 01:27:43 V1M 19 00:28:04 00:24:38 10,260 05:51
70 197 PICARD Remy 01:28:05 V3M 5 00:28:26 00:10:45 As Blacourt 10,218 05:52
71 235 JAHYER Didier 01:28:20 V2M 14 00:28:41 00:17:09 10,189 05:53
72 104 COULON Daniel 01:28:27 V2M 15 00:28:48 00:17:16 10,175 05:54
73 174 GREUGNY Mathieu 01:28:27 SEM 31 00:28:48 00:28:48 10,175 05:54
74 188 SEIGNIER Daniel 01:28:37 V3M 6 00:28:58 00:11:17 10,156 05:54
75 258 COTTELLE Jerome 01:28:50 V1M 20 00:29:11 00:25:45 10,131 05:55
76 187 ANDIOLE eric 01:28:54 V2M 16 00:29:15 00:17:43 chantilly athletisme 10,124 05:56
77 120 GOSSELIN Sylvain 01:29:59 V2M 17 00:30:20 00:18:48 10,002 06:00
78 212 BERTON Romain 01:30:21 SEM 32 00:30:42 00:30:42 9,961 06:01
79 194 CRÉTÉ Angélique 01:30:26 V1F 1 00:30:47 00:00:00 ST JUST ATHLETISME 9,952 06:02
80 241 LECONTE Valentin 01:30:34 V1M 21 00:30:55 00:27:29 9,937 06:02
81 196 PAUMIER Sandrine 01:30:43 SEF 3 00:31:04 00:07:10 As Blacourt 9,921 06:03
82 217 BARLET Bruno 01:31:05 V2M 18 00:31:26 00:19:54 ASC Drancy 9,881 06:04
83 221 D'ANGELO Calogero 01:31:05 V2M 19 00:31:26 00:19:54 ASC Drancy 9,881 06:04
84 223 GARNIER Philippe 01:31:05 V2M 20 00:31:26 00:19:54 ASC Drancy 9,881 06:04
85 117 MICHEL MYRIAM 01:32:10 SEF 4 00:32:31 00:08:37 9,765 06:09
86 220 DAD Géraraly 01:32:45 V2M 21 00:33:06 00:21:34 ASC Drancy 9,704 06:11
87 218 CHATELAINT Cristina 01:33:36 V2F 1 00:33:57 00:00:00 ASC Drancy 9,615 06:14
88 175 COUSTILLIERES Christophe 01:33:47 V2M 22 00:34:08 00:22:36 9,597 06:15
89 208 SAVOYE Valérie 01:34:03 V1F 2 00:34:24 00:03:37 9,569 06:16
90 164 OPDEBEEK Patricia 01:35:14 V2F 2 00:35:35 00:01:38 ACPBreteuil 9,450 06:21
91 246 DERDLIAN Mickael 01:35:36 SEM 33 00:35:57 00:35:57 9,414 06:22
92 149 GANET Mélanie 01:35:43 SEF 5 00:36:04 00:12:10 9,403 06:23
93 195 ITSWEIRE Adrien 01:35:43 SEM 34 00:36:04 00:36:04 9,403 06:23
94 243 NOUGER Sebastien 01:35:46 V1M 22 00:36:07 00:32:41 9,398 06:23
95 253 JOUY Justin 01:35:47 JUM 2 00:36:08 00:24:28 RABE 9,396 06:23
96 231 AUDY Nicolas 01:35:55 V1M 23 00:36:16 00:32:50 9,383 06:24
97 124 BOULANGER David 01:36:05 V1M 24 00:36:26 00:33:00 9,367 06:24
98 143 JACQUES Nolwenn 01:36:16 SEF 6 00:36:37 00:12:43 9,349 06:25
99 259 BLED Pascal 01:36:38 SEM 35 00:36:59 00:36:59 9,314 06:27
100 247 DOUAY Benoit 01:37:13 SEM 36 00:37:34 00:37:34 9,258 06:29
101 121 GOSSELIN Emmanuel 01:37:25 V2M 23 00:37:46 00:26:14 9,239 06:30
102 207 RIBEIN Maud 01:37:33 SEF 7 00:37:54 00:14:00 9,226 06:30
103 242 DELAPORTE Herve 01:38:03 V2M 24 00:38:24 00:26:52 ACA BEAUVAIS 9,179 06:32
104 150 LE CORRE franck 01:38:04 V1M 25 00:38:25 00:34:59 9,177 06:32
105 200 DELATOUR david 01:39:00 V1M 26 00:39:21 00:35:55 9,091 06:36
106 112 COME Eric 01:39:07 V2M 25 00:39:28 00:27:56 CC THELLE 9,080 06:36
107 140 DELAFONTAINE Julien 01:39:17 SEM 37 00:39:38 00:39:38 9,065 06:37
108 126 BOLLÉ david 01:39:37 V1F 3 00:39:58 00:09:11 9,035 06:38
109 123 SEGARD Nicolas 01:39:39 SEM 38 00:40:00 00:40:00 9,032 06:39
110 134 HENON Mathieu 01:39:45 SEM 39 00:40:06 00:40:06 9,023 06:39
111 168 HAINSSELIN JUSTINE 01:40:19 SEF 8 00:40:40 00:16:46 AS BONDY 8,972 06:41
112 131 GROGNET PASCALE 01:40:19 V2F 3 00:40:40 00:06:43 8,972 06:41
113 248 HAVARD Nicolas 01:40:34 V1M 27 00:40:55 00:37:29 8,949 06:42
114 138 DEMOND Joëlle 01:40:40 V3F 1 00:41:01 00:00:00 UA Chauny 8,940 06:43
115 122 NICOLET MATHIEU 01:41:17 SEM 40 00:41:38 00:41:38 8,886 06:45
116 211 CAILLET elie 01:42:30 SEM 41 00:42:51 00:42:51 8,780 06:50
117 141 DESFORGES Guillaume 01:43:03 SEM 42 00:43:24 00:43:24 8,734 06:52
118 154 SANNIER sebastien 01:43:05 SEM 43 00:43:26 00:43:26 8,731 06:52
119 192 MAYEUX Claudine 01:43:47 V1F 4 00:44:08 00:13:21 Montdidier athletix 8,672 06:55
120 193 DELMOTTE Pascal 01:43:48 V1M 28 00:44:09 00:40:43 Montdidier athletix 8,671 06:55
121 173 CRESSENT Justine 01:44:29 SEF 9 00:44:50 00:20:56 8,614 06:58
122 222 FALSON Jean-Marc 01:45:12 V3M 7 00:45:33 00:27:52 ASC Drancy 8,555 07:01
123 110 BURGUN clarisse 01:45:17 V2F 4 00:45:38 00:11:41 aca beauvais 8,548 07:01
124 119 CARLE alexandra 01:45:19 SEF 10 00:45:40 00:21:46 8,546 07:01
125 184 LEVEQUE david 01:45:54 V1M 29 00:46:15 00:42:49 8,499 07:04
126 103 DUHIN PRISCILLIA 01:46:28 SEF 11 00:46:49 00:22:55 8,453 07:06
127 106 LEFEVRE Virgil 01:46:28 SEM 44 00:46:49 00:46:49 8,453 07:06
128 181 SIX Kevin 01:46:30 JUM 3 00:46:51 00:35:11 8,451 07:06
129 432 BRAILLY johann 01:46:36 V1M 30 00:46:57 00:43:31 8,443 07:06
130 224 LACAZE Virginie 01:46:46 V1F 5 00:47:07 00:16:20 ASC Drancy 8,430 07:07
131 161 N'DAO AISSATA 01:47:50 V1F 6 00:48:11 00:17:24 8,346 07:11
132 160 REMBAUVILLE CHLOE 01:47:50 SEF 12 00:48:11 00:24:17 8,346 07:11
133 129 DELANDE Stephanie 01:48:08 V2F 5 00:48:29 00:14:32 8,323 07:13
134 152 PEDIAC Jérôme 01:49:14 V1M 31 00:49:35 00:46:09 8,239 07:17
135 108 DELAUTEL ANGELIQUE 01:49:43 V1F 7 00:50:04 00:19:17 LES PAS PRESSES 8,203 07:19
136 107 DUBOURDEAUX MATTHIEU 01:49:43 V1M 32 00:50:04 00:46:38 LES PAS PRESSES 8,203 07:19
137 115 LEROUX Isabelle 01:50:35 V1F 8 00:50:56 00:20:09 Acabeauvais 8,139 07:22
138 125 FURLANETTO EMILIE 01:51:57 SEF 13 00:52:18 00:28:24 8,039 07:28
139 148 SARRADET Franck 01:51:58 V2M 26 00:52:19 00:40:47 8,038 07:28
140 191 MERET Johan 01:51:58 V1M 33 00:52:19 00:48:53 8,038 07:28
141 142 DANIEL NATHALIE 01:53:27 V2F 6 00:53:48 00:19:51 7,933 07:34
142 204 JOUY-GRATPANCHE Chantal 01:54:17 V1F 9 00:54:38 00:23:51 7,875 07:37
143 252 DUCROCQ Jerome 01:54:17 V1M 34 00:54:38 00:51:12 RABE 7,875 07:37
144 116 LANCELOT jacques 01:59:43 V4M 1 01:00:04 00:00:00 7,518 07:59
145 183 IVANUSIC Stephane 02:01:13 V1M 35 01:01:34 00:58:08 7,425 08:05
146 209 ITSWEIRE Valérie 02:02:56 V2F 7 01:03:17 00:29:20 Vytajog 7,321 08:12
147 210 ITSWEIRE Lionel 02:03:01 V2M 27 01:03:22 00:51:50 Vytajog 7,316 08:12
148 251 DETERPIGNY Yann 02:03:52 SEM 45 01:04:13 01:04:13 7,266 08:15
149 238 DETERPIGNY Lucie 02:03:52 SEF 14 01:04:13 00:40:19 ACA BEAUVAIS 7,266 08:15
150 180 MARIÉ michéle 02:06:44 V1F 10 0,04659 0,025208 7,1015 0,0058673